Time;durP1;ratioP1;P1;durP2;ratioP2;P2;SDS_P1;SDS_P2;PMS_P1;PMS_P2;Temp;Humidity;BMP_temperature;BMP_pressure;BME280_temperature;BME280_humidity;BME280_pressure;Samples;Min_cycle;Max_cycle;Signal;HPM_P1;HPM_P2
2023/04/12 00:00:23;;;;;;;0.50;0.50;;;;;;;7.76;59.79;96369.84;29394;276;64013;-57
2023/04/12 00:00:54;;;;;;;0.50;0.50;;;;;;;7.71;60.62;96361.81;29395;259;63004;-56
2023/04/12 00:01:26;;;;;;;0.50;0.50;;;;;;;7.67;61.00;96364.28;29395;209;63018;-58
2023/04/12 00:01:57;;;;;;;0.50;0.50;;;;;;;7.69;60.44;96358.59;29395;198;63004;-58
2023/04/12 00:02:29;;;;;;;0.50;0.50;;;;;;;7.70;59.92;96360.19;29394;241;64013;-57
2023/04/12 00:03:04;;;;;;;0.50;0.50;;;;;;;7.70;60.27;96365.59;29395;215;63004;-56
2023/04/12 00:03:36;;;;;;;0.50;0.50;;;;;;;7.70;60.26;96360.19;29395;238;63008;-57
2023/04/12 00:04:08;;;;;;;0.60;0.60;;;;;;;7.66;60.21;96359.97;29395;232;63005;-57
2023/04/12 00:04:40;;;;;;;0.50;0.50;;;;;;;7.64;60.51;96362.16;29395;249;63009;-58
2023/04/12 00:05:12;;;;;;;0.50;0.50;;;;;;;7.62;60.63;96363.56;29395;208;63005;-56
2023/04/12 00:05:45;;;;;;;0.50;0.50;;;;;;;7.63;60.67;96370.53;29394;296;64013;-56
2023/04/12 00:06:17;;;;;;;0.50;0.50;;;;;;;7.61;61.04;96367.34;29395;214;63005;-56
2023/04/12 00:06:49;;;;;;;0.50;0.50;;;;;;;7.61;61.46;96367.34;29394;196;64013;-62
2023/04/12 00:07:22;;;;;;;0.50;0.50;;;;;;;7.59;61.27;96364.13;29395;248;63005;-57
2023/04/12 00:07:54;;;;;;;0.50;0.50;;;;;;;7.58;61.10;96362.50;29395;205;63009;-63
2023/04/12 00:08:32;;;;;;;0.50;0.50;;;;;;;7.59;60.87;96364.13;29394;232;64009;-56
2023/04/12 00:09:05;;;;;;;0.50;0.50;;;;;;;7.60;61.30;96363.03;29395;233;63009;-56
2023/04/12 00:09:36;;;;;;;0.50;0.50;;;;;;;7.60;60.86;96354.94;29395;236;63004;-56
2023/04/12 00:10:09;;;;;;;0.50;0.50;;;;;;;7.61;61.19;96353.84;29395;303;63009;-57
2023/04/12 00:10:40;;;;;;;0.50;0.50;;;;;;;7.60;61.29;96354.94;29394;223;64004;-56
2023/04/12 00:11:12;;;;;;;0.50;0.50;;;;;;;7.59;61.35;96358.72;29395;210;63008;-57
2023/04/12 00:11:43;;;;;;;0.50;0.50;;;;;;;7.59;61.22;96354.12;29394;222;64009;-57
2023/04/12 00:12:16;;;;;;;0.50;0.50;;;;;;;7.59;61.10;96356.03;29395;208;63009;-56
2023/04/12 00:12:48;;;;;;;0.50;0.50;;;;;;;7.59;61.88;96358.72;29395;216;63009;-56
2023/04/12 00:13:19;;;;;;;0.50;0.50;;;;;;;7.57;62.92;96366.31;29394;205;64013;-57
2023/04/12 00:13:51;;;;;;;0.50;0.50;;;;;;;7.55;62.56;96363.06;29395;283;63005;-62
2023/04/12 00:14:23;;;;;;;0.50;0.50;;;;;;;7.56;62.20;96359.28;29395;215;63024;-57
2023/04/12 00:14:54;;;;;;;0.50;0.50;;;;;;;7.56;61.82;96359.28;29395;255;63005;-57
2023/04/12 00:15:27;;;;;;;0.50;0.50;;;;;;;7.57;62.02;96360.91;29395;238;63009;-56
2023/04/12 00:15:58;;;;;;;0.50;0.50;;;;;;;7.57;62.03;96356.31;29395;219;63004;-56
2023/04/12 00:16:29;;;;;;;0.50;0.50;;;;;;;7.57;62.67;96366.31;29395;263;63009;-55
2023/04/12 00:17:00;;;;;;;0.50;0.50;;;;;;;7.54;63.31;96361.47;29395;282;63004;-57
2023/04/12 00:17:31;;;;;;;0.50;0.50;;;;;;;7.51;63.44;96367.44;29394;279;64013;-56
2023/04/12 00:18:03;;;;;;;0.50;0.50;;;;;;;7.49;63.69;96362.31;29395;207;63004;-56
2023/04/12 00:18:35;;;;;;;0.50;0.50;;;;;;;7.50;63.62;96371.22;29395;255;63008;-56
2023/04/12 00:19:06;;;;;;;0.50;0.50;;;;;;;7.51;63.29;96367.44;29395;235;63005;-57
2023/04/12 00:19:40;;;;;;;0.50;0.50;;;;;;;7.56;62.34;96348.50;29395;287;63014;-57
2023/04/12 00:20:15;;;;;;;0.50;0.50;;;;;;;7.56;62.54;96348.50;29395;272;63005;-56
2023/04/12 00:20:46;;;;;;;0.50;0.50;;;;;;;7.56;62.37;96348.50;29395;221;63019;-56
2023/04/12 00:21:18;;;;;;;0.50;0.50;;;;;;;7.55;62.66;96352.28;29395;246;63005;-56
2023/04/12 00:21:51;;;;;;;0.50;0.50;;;;;;;7.54;62.72;96354.16;29395;203;63009;-56
2023/04/12 00:22:29;;;;;;;0.50;0.50;;;;;;;7.54;62.91;96350.66;29394;212;63999;-62
2023/04/12 00:23:04;;;;;;;0.50;0.50;;;;;;;7.53;62.95;96351.75;29395;216;63009;-56
2023/04/12 00:23:39;;;;;;;0.50;0.50;;;;;;;7.53;62.81;96349.06;29394;227;64009;-56
2023/04/12 00:24:11;;;;;;;0.50;0.50;;;;;;;7.51;62.74;96356.63;29395;205;63019;-56
2023/04/12 00:24:42;;;;;;;0.50;0.50;;;;;;;7.50;63.42;96358.53;29395;202;63004;-56
2023/04/12 00:25:14;;;;;;;0.50;0.50;;;;;;;7.48;63.97;96362.59;29395;233;63009;-57
2023/04/12 00:25:45;;;;;;;0.50;0.50;;;;;;;7.47;64.85;96366.41;29395;226;63004;-57
2023/04/12 00:26:19;;;;;;;0.50;0.50;;;;;;;7.46;63.89;96371.00;29394;220;64008;-55
2023/04/12 00:26:55;;;;;;;0.50;0.50;;;;;;;7.53;64.32;96354.47;29394;270;64009;-56
2023/04/12 00:27:26;;;;;;;0.50;0.50;;;;;;;7.53;64.37;96357.97;29395;210;63009;-56
2023/04/12 00:27:57;;;;;;;0.50;0.50;;;;;;;7.52;64.86;96360.94;29395;232;63005;-56
2023/04/12 00:28:29;;;;;;;0.50;0.50;;;;;;;7.48;64.92;96359.91;29395;202;63009;-61
2023/04/12 00:29:00;;;;;;;0.60;0.60;;;;;;;7.47;64.96;96361.81;29395;285;63005;-56
2023/04/12 00:29:32;;;;;;;0.50;0.50;;;;;;;7.45;65.52;96363.97;29395;205;63009;-57
2023/04/12 00:30:06;;;;;;;0.50;0.50;;;;;;;7.45;65.15;96363.19;29395;262;63005;-56
2023/04/12 00:30:40;;;;;;;0.50;0.50;;;;;;;7.45;65.62;96357.78;29395;270;63009;-56
2023/04/12 00:31:12;;;;;;;0.50;0.50;;;;;;;7.44;65.58;96362.38;29395;224;63009;-56
2023/04/12 00:31:43;;;;;;;0.50;0.50;;;;;;;7.43;65.14;96359.94;29394;202;64013;-56
2023/04/12 00:32:14;;;;;;;0.50;0.50;;;;;;;7.41;66.53;96371.03;29395;243;63004;-56
2023/04/12 00:32:45;;;;;;;0.50;0.50;;;;;;;7.39;66.96;96365.91;29396;243;63009;-56
2023/04/12 00:33:17;;;;;;;0.50;0.50;;;;;;;7.37;67.67;96373.50;29396;250;63004;-56
2023/04/12 00:33:48;;;;;;;0.60;0.60;;;;;;;7.34;68.39;96374.06;29396;218;63008;-57
2023/04/12 00:34:19;;;;;;;0.50;0.50;;;;;;;7.32;67.62;96370.84;29396;249;63005;-60
2023/04/12 00:34:50;;;;;;;0.95;0.95;;;;;;;7.32;67.35;96365.44;29396;214;63009;-57
2023/04/12 00:35:22;;;;;;;0.60;0.60;;;;;;;7.34;67.76;96368.66;29396;202;63005;-56
2023/04/12 00:35:53;;;;;;;0.50;0.50;;;;;;;7.35;68.62;96372.16;29396;252;63009;-63
2023/04/12 00:36:25;;;;;;;0.50;0.50;;;;;;;7.35;70.56;96385.66;29396;214;63005;-57
2023/04/12 00:36:57;;;;;;;0.60;0.60;;;;;;;7.31;69.65;96374.63;29395;212;64003;-57
2023/04/12 00:37:28;;;;;;;0.50;0.50;;;;;;;7.31;70.52;96377.31;29395;198;64009;-57
2023/04/12 00:38:01;;;;;;;0.50;0.50;;;;;;;7.30;70.33;96372.22;29396;206;63009;-57
2023/04/12 00:38:33;;;;;;;0.50;0.50;;;;;;;7.28;69.79;96369.78;29395;216;63004;-57
2023/04/12 00:39:05;;;;;;;0.50;0.50;;;;;;;7.28;72.58;96375.19;29395;210;63009;-57
2023/04/12 00:39:36;;;;;;;0.50;0.50;;;;;;;7.26;72.69;96366.59;29395;196;64009;-57
2023/04/12 00:40:08;;;;;;;0.50;0.50;;;;;;;7.24;71.93;96358.00;29396;223;63009;-57
2023/04/12 00:40:41;;;;;;;0.50;0.50;;;;;;;7.29;71.36;96354.41;29395;280;64009;-56
2023/04/12 00:41:17;;;;;;;0.60;0.60;;;;;;;7.36;71.46;96358.37;29396;204;63008;-57
2023/04/12 00:41:51;;;;;;;0.60;0.60;;;;;;;7.36;70.97;96347.59;29396;228;63005;-56
2023/04/12 00:42:23;;;;;;;0.60;0.60;;;;;;;7.36;71.35;96350.28;29396;250;63009;-57
2023/04/12 00:42:54;;;;;;;0.50;0.50;;;;;;;7.34;71.26;96346.25;29396;204;63008;-57
2023/04/12 00:43:26;;;;;;;0.50;0.50;;;;;;;7.28;71.04;96339.31;29395;203;64013;-56
2023/04/12 00:43:57;;;;;;;0.60;0.60;;;;;;;7.26;70.98;96347.72;29396;219;63005;-57
2023/04/12 00:44:29;;;;;;;0.60;0.60;;;;;;;7.25;71.72;96348.00;29396;197;63009;-57
2023/04/12 00:45:01;;;;;;;0.50;0.50;;;;;;;7.23;72.27;96345.59;29396;265;63005;-57
2023/04/12 00:45:32;;;;;;;0.50;0.50;;;;;;;7.20;73.07;96343.44;29396;235;63009;-58
2023/04/12 00:46:04;;;;;;;0.50;0.50;;;;;;;7.20;72.80;96335.34;29395;211;64009;-64
2023/04/12 00:46:37;;;;;;;0.50;0.50;;;;;;;7.20;73.54;96334.56;29396;226;63009;-57
2023/04/12 00:47:08;;;;;;;0.60;0.60;;;;;;;7.18;74.70;96339.44;29396;259;63004;-57
2023/04/12 00:47:42;;;;;;;0.50;0.50;;;;;;;7.13;75.39;96334.87;29396;208;63009;-58
2023/04/12 00:48:15;;;;;;;0.50;0.50;;;;;;;7.07;75.27;96336.81;29396;219;63004;-57
2023/04/12 00:48:47;;;;;;;0.50;0.50;;;;;;;7.04;74.81;96336.56;29396;251;63008;-57
2023/04/12 00:49:18;;;;;;;0.50;0.50;;;;;;;7.02;76.25;96341.44;29396;254;63005;-58
2023/04/12 00:49:50;;;;;;;0.60;0.60;;;;;;;7.01;77.16;96334.44;29396;293;63009;-57
2023/04/12 00:50:22;;;;;;;0.50;0.50;;;;;;;7.00;76.10;96324.75;29396;239;63009;-56
2023/04/12 00:50:56;;;;;;;0.50;0.50;;;;;;;6.98;76.47;96332.31;29396;280;63009;-57
2023/04/12 00:51:32;;;;;;;0.50;0.50;;;;;;;6.95;77.21;96333.69;29395;249;64009;-57
2023/04/12 00:52:07;;;;;;;0.50;0.50;;;;;;;6.90;77.82;96330.25;29396;197;63009;-57
2023/04/12 00:52:40;;;;;;;0.50;0.50;;;;;;;6.84;78.64;96329.47;29395;221;64009;-64
2023/04/12 00:53:13;;;;;;;0.50;0.50;;;;;;;6.79;79.43;96323.31;29396;229;63009;-59
2023/04/12 00:53:45;;;;;;;0.50;0.50;;;;;;;6.76;78.72;96321.97;29396;274;63004;-57
2023/04/12 00:54:17;;;;;;;0.50;0.50;;;;;;;6.77;78.37;96325.50;29396;208;63009;-57
2023/04/12 00:54:50;;;;;;;0.50;0.50;;;;;;;6.77;79.89;96322.78;29396;263;63004;-56
2023/04/12 00:55:22;;;;;;;0.50;0.50;;;;;;;6.72;80.92;96321.75;29396;199;63009;-57
2023/04/12 00:55:54;;;;;;;0.50;0.50;;;;;;;6.71;80.69;96317.44;29396;234;63004;-57
2023/04/12 00:56:30;;;;;;;0.50;0.50;;;;;;;6.70;79.54;96323.09;29396;229;63008;-57
2023/04/12 00:57:03;;;;;;;0.50;0.50;;;;;;;6.69;78.93;96314.22;29396;197;63017;-61
2023/04/12 00:57:39;;;;;;;0.50;0.50;;;;;;;6.71;79.77;96322.81;29396;260;63009;-57
2023/04/12 00:58:11;;;;;;;0.50;0.50;;;;;;;6.70;79.38;96310.44;29395;222;64009;-57
2023/04/12 00:58:42;;;;;;;0.60;0.60;;;;;;;6.70;79.17;96313.13;29396;206;63009;-59
2023/04/12 00:59:14;;;;;;;0.60;0.60;;;;;;;6.69;79.29;96314.22;29396;283;63005;-57
2023/04/12 00:59:45;;;;;;;0.50;0.50;;;;;;;6.69;81.68;96314.22;29396;212;63009;-56
2023/04/12 01:00:18;;;;;;;0.50;0.50;;;;;;;6.68;82.28;96317.19;29396;221;63005;-57
2023/04/12 01:00:51;;;;;;;0.50;0.50;;;;;;;6.67;82.40;96315.59;29396;294;63009;-57
2023/04/12 01:01:23;;;;;;;0.50;0.50;;;;;;;6.65;82.36;96315.84;29395;235;64004;-58
2023/04/12 01:01:56;;;;;;;0.50;0.50;;;;;;;6.63;82.90;96309.12;29396;227;63013;-57
2023/04/12 01:02:29;;;;;;;0.50;0.50;;;;;;;6.61;82.47;96312.13;29396;222;63012;-57
2023/04/12 01:03:04;;;;;;;0.50;0.50;;;;;;;6.59;81.88;96311.59;29395;199;64013;-56
2023/04/12 01:03:41;;;;;;;0.50;0.50;;;;;;;6.59;82.06;96305.41;29396;224;63004;-57
2023/04/12 01:04:13;;;;;;;0.50;0.50;;;;;;;6.59;81.38;96306.19;29396;235;63008;-57
2023/04/12 01:04:49;;;;;;;0.60;0.60;;;;;;;6.60;82.76;96307.00;29396;198;63009;-57
2023/04/12 01:05:23;;;;;;;0.50;0.50;;;;;;;6.57;81.87;96305.69;29396;226;63018;-57
2023/04/12 01:06:12;;;;;;;0.60;0.60;;;;;;;6.57;81.16;96311.09;29396;211;63005;-58
2023/04/12 01:07:14;;;;;;;0.50;0.50;;;;;;;6.60;80.84;96304.31;29396;212;63009;-57
2023/04/12 01:08:18;;;;;;;0.55;0.55;;;;;;;6.61;82.17;96306.72;29440;233;63004;-57
2023/04/12 01:09:45;;;;;;;0.50;0.50;;;;;;;6.59;82.08;96303.50;29395;222;64013;-57
2023/04/12 01:10:51;;;;;;;0.60;0.60;;;;;;;6.57;83.52;96304.91;29396;202;63008;-57
2023/04/12 01:11:44;;;;;;;0.60;0.60;;;;;;;6.56;82.75;96308.69;29396;236;63005;-65
2023/04/12 01:12:49;;;;;;;0.60;0.60;;;;;;;6.53;83.87;96301.97;29396;271;63019;-57
2023/04/12 01:13:40;;;;;;;0.60;0.60;;;;;;;6.52;84.85;96299.53;29396;226;63009;-57
2023/04/12 01:14:45;;;;;;;0.60;0.60;;;;;;;6.50;85.30;96305.22;29417;318;64013;-57
2023/04/12 01:15:17;;;;;;;0.60;0.60;;;;;;;6.47;85.74;96300.38;29396;218;63004;-57
2023/04/12 01:16:15;;;;;;;0.60;0.60;;;;;;;6.49;84.44;96302.78;29396;251;63009;-56
2023/04/12 01:16:52;;;;;;;0.60;0.60;;;;;;;6.53;83.16;96301.16;29396;224;64009;-63
2023/04/12 01:17:30;;;;;;;0.60;0.60;;;;;;;6.54;83.71;96295.47;29397;312;63009;-56
2023/04/12 01:18:08;;;;;;;0.60;0.60;;;;;;;6.54;84.25;96291.97;29397;212;63004;-57
2023/04/12 01:18:44;;;;;;;0.60;0.60;;;;;;;6.52;84.71;96294.97;29397;203;63009;-57
2023/04/12 01:20:15;;;;;;;0.50;0.50;;;;;;;6.52;83.67;96297.66;29396;209;64009;-57
2023/04/12 01:21:23;;;;;;;0.60;0.60;;;;;;;6.54;85.28;96294.69;29397;205;63009;-57
2023/04/12 01:22:20;;;;;;;0.50;0.50;;;;;;;6.53;84.87;96288.47;29397;216;63005;-57
2023/04/12 01:23:30;;;;;;;0.60;0.60;;;;;;;6.54;83.73;96291.97;29396;228;64009;-58
2023/04/12 01:24:25;;;;;;;0.60;0.60;;;;;;;6.55;83.57;96288.19;29397;236;63009;-57
2023/04/12 01:25:50;;;;;;;0.50;0.50;;;;;;;6.56;84.59;96293.31;29395;216;64009;-57
2023/04/12 01:26:45;;;;;;;0.60;0.60;;;;;;;6.52;84.32;96284.19;29397;216;63005;-57
2023/04/12 01:27:47;;;;;;;0.60;0.60;;;;;;;6.59;84.54;96287.31;29395;200;64014;-57
2023/04/12 01:28:26;;;;;;;0.60;0.60;;;;;;;6.59;84.43;96284.62;29418;223;64009;-57
2023/04/12 01:29:00;;;;;;;0.60;0.60;;;;;;;6.59;84.18;96281.94;29396;196;63009;-58
2023/04/12 01:29:33;;;;;;;0.60;0.60;;;;;;;6.57;84.87;96286.84;29396;242;63005;-56
2023/04/12 01:30:07;;;;;;;0.50;0.50;;;;;;;6.56;83.80;96282.53;29395;299;64006;-56
2023/04/12 01:30:40;;;;;;;0.60;0.60;;;;;;;6.55;84.32;96278.22;29397;212;63004;-57
2023/04/12 01:31:13;;;;;;;0.60;0.60;;;;;;;6.54;84.52;96279.31;29396;202;63025;-58
2023/04/12 01:32:02;;;;;;;0.60;0.60;;;;;;;6.52;86.31;96278.78;29396;208;63017;-57
2023/04/12 01:32:36;;;;;;;0.50;0.50;;;;;;;6.50;86.10;96283.66;29396;231;63009;-57
2023/04/12 01:33:11;;;;;;;0.50;0.50;;;;;;;6.46;87.59;96277.22;29396;213;63014;-56
2023/04/12 01:33:44;;;;;;;0.60;0.60;;;;;;;6.45;87.69;96282.88;29396;203;63009;-57
2023/04/12 01:34:17;;;;;;;0.60;0.60;;;;;;;6.43;87.68;96280.47;29396;197;63005;-57
2023/04/12 01:34:49;;;;;;;0.52;0.52;;;;;;;6.42;88.41;96273.47;29396;199;63009;-57
2023/04/12 01:35:27;;;;;;;0.60;0.60;;;;;;;6.40;88.66;96278.31;29395;238;64009;-58
2023/04/12 01:36:05;;;;;;;0.60;0.60;;;;;;;6.39;87.33;96272.13;29396;214;63018;-58
2023/04/12 01:36:38;;;;;;;0.60;0.60;;;;;;;6.36;88.46;96280.78;29396;214;63005;-57
2023/04/12 01:37:11;;;;;;;0.60;0.60;;;;;;;6.34;89.05;96274.06;29396;216;63009;-57
2023/04/12 01:37:43;;;;;;;0.50;0.50;;;;;;;6.34;88.15;96276.75;29396;356;63005;-57
2023/04/12 01:38:15;;;;;;;0.60;0.60;;;;;;;6.37;87.75;96276.19;29395;215;64013;-57
2023/04/12 01:38:48;;;;;;;0.60;0.60;;;;;;;6.36;87.61;96272.69;29395;219;64009;-58
2023/04/12 01:39:20;;;;;;;0.60;0.60;;;;;;;6.37;88.08;96273.50;29396;306;63009;-57
2023/04/12 01:39:51;;;;;;;0.60;0.60;;;;;;;6.37;88.38;96276.19;29396;236;63004;-57
2023/04/12 01:40:26;;;;;;;0.60;0.60;;;;;;;6.35;89.12;96275.66;29396;215;63008;-57
2023/04/12 01:40:58;;;;;;;0.60;0.60;;;;;;;6.33;90.27;96272.44;29396;316;63018;-57
2023/04/12 01:41:31;;;;;;;0.60;0.60;;;;;;;6.34;89.45;96274.06;29395;221;64014;-57
2023/04/12 01:42:03;;;;;;;0.50;0.50;;;;;;;6.33;89.66;96272.44;29396;215;63005;-57
2023/04/12 01:42:34;;;;;;;0.50;0.50;;;;;;;6.31;90.31;96269.22;29396;236;63009;-56
2023/04/12 01:43:11;;;;;;;0.60;0.60;;;;;;;6.30;90.30;96267.63;29396;318;63005;-57
2023/04/12 01:43:44;;;;;;;0.50;0.50;;;;;;;6.30;90.49;96267.63;29396;209;63005;-57
2023/04/12 01:44:16;;;;;;;0.60;0.60;;;;;;;6.28;91.49;96259.00;29396;202;63005;-58
2023/04/12 01:44:49;;;;;;;0.50;0.50;;;;;;;6.28;91.93;96253.63;29395;196;64013;-57
2023/04/12 01:45:21;;;;;;;0.60;0.60;;;;;;;6.26;92.38;96255.78;29396;212;63005;-57
2023/04/12 01:45:52;;;;;;;0.60;0.60;;;;;;;6.28;91.62;96261.69;29396;197;63009;-57
2023/04/12 01:46:24;;;;;;;0.50;0.50;;;;;;;6.31;90.79;96255.75;29396;221;63004;-57
2023/04/12 01:46:56;;;;;;;0.50;0.50;;;;;;;6.33;89.79;96257.09;29396;287;63014;-59
2023/04/12 01:47:28;;;;;;;0.50;0.50;;;;;;;6.38;89.66;96248.16;29396;213;63004;-56
2023/04/12 01:48:00;;;;;;;0.50;0.50;;;;;;;6.37;89.63;96251.94;29395;242;64013;-56
2023/04/12 01:48:32;;;;;;;0.50;0.50;;;;;;;6.39;89.33;96244.37;29396;224;63008;-57
2023/04/12 01:49:04;;;;;;;0.60;0.60;;;;;;;6.39;89.30;96250.56;29396;229;63009;-58
2023/04/12 01:49:55;;;;;;;0.60;0.60;;;;;;;6.45;88.47;96248.66;29396;202;63005;-58
2023/04/12 01:51:01;;;;;;;0.57;0.57;;;;;;;6.52;87.96;96246.44;29418;202;63009;-58
2023/04/12 01:51:57;;;;;;;0.60;0.60;;;;;;;6.53;87.80;96239.16;29396;203;63005;-64
2023/04/12 01:52:31;;;;;;;0.60;0.60;;;;;;;6.49;87.82;96236.22;29396;224;63005;-57
2023/04/12 01:53:28;;;;;;;0.50;0.50;;;;;;;6.41;89.50;96239.53;29395;250;64003;-57
2023/04/12 01:54:10;;;;;;;0.50;0.50;;;;;;;6.35;90.41;96237.94;29396;221;63004;-57
2023/04/12 01:54:43;;;;;;;0.60;0.60;;;;;;;6.32;89.37;96233.13;29396;240;63009;-57
2023/04/12 01:55:19;;;;;;;0.50;0.50;;;;;;;6.34;89.76;96239.03;29396;199;63004;-58
2023/04/12 01:55:57;;;;;;;0.60;0.60;;;;;;;6.38;90.92;96238.19;29396;202;63008;-57
2023/04/12 01:56:33;;;;;;;0.50;0.50;;;;;;;6.40;90.52;96240.59;29396;270;63005;-59
2023/04/12 01:57:07;;;;;;;0.60;0.60;;;;;;;6.38;90.70;96240.88;29395;221;64014;-57
2023/04/12 01:57:43;;;;;;;0.60;0.60;;;;;;;6.35;90.61;96238.75;29396;208;63005;-63
2023/04/12 01:58:21;;;;;;;0.60;0.60;;;;;;;6.32;90.20;96238.50;29396;369;63009;-57
2023/04/12 01:58:54;;;;;;;0.60;0.60;;;;;;;6.32;90.38;96235.81;29396;277;63005;-57
2023/04/12 01:59:34;;;;;;;0.50;0.50;;;;;;;6.33;90.10;96234.72;29395;382;64013;-57
2023/04/12 02:00:09;;;;;;;0.50;0.50;;;;;;;6.31;90.63;96234.19;29396;212;63005;-58
2023/04/12 02:00:43;;;;;;;0.52;0.52;;;;;;;6.32;90.51;96225.03;29396;205;63009;-57
2023/04/12 02:01:16;;;;;;;0.55;0.55;;;;;;;6.29;90.91;96228.28;29396;202;63004;-57
2023/04/12 02:01:48;;;;;;;0.50;0.50;;;;;;;6.28;91.15;96229.38;29395;235;64013;-57
2023/04/12 02:02:20;;;;;;;0.60;0.60;;;;;;;6.26;90.86;96223.47;29395;202;64004;-56
2023/04/12 02:02:51;;;;;;;0.50;0.50;;;;;;;6.26;91.54;96226.16;29396;212;63009;-62
2023/04/12 02:03:23;;;;;;;0.50;0.50;;;;;;;6.25;91.79;96219.16;29396;241;63004;-57
2023/04/12 02:03:59;;;;;;;0.50;0.50;;;;;;;6.25;91.53;96216.47;29396;224;63015;-58
2023/04/12 02:04:33;;;;;;;0.60;0.60;;;;;;;6.24;91.39;96218.34;29395;219;64009;-57
2023/04/12 02:05:08;;;;;;;0.50;0.50;;;;;;;6.26;91.12;96220.75;29396;234;63009;-58
2023/04/12 02:05:40;;;;;;;0.60;0.60;;;;;;;6.26;91.63;96218.88;29396;212;63010;-64
2023/04/12 02:06:12;;;;;;;0.60;0.60;;;;;;;6.25;91.69;96219.97;29396;321;63017;-57
2023/04/12 02:06:46;;;;;;;0.60;0.60;;;;;;;6.24;91.84;96221.03;29395;219;64005;-57
2023/04/12 02:07:19;;;;;;;0.50;0.50;;;;;;;6.25;92.36;96216.47;29395;289;64013;-57
2023/04/12 02:07:51;;;;;;;0.50;0.50;;;;;;;6.30;92.02;96213.72;29396;210;63004;-57
2023/04/12 02:08:23;;;;;;;0.50;0.50;;;;;;;6.30;92.37;96219.13;29396;229;63009;-57
2023/04/12 02:09:01;;;;;;;0.60;0.60;;;;;;;6.28;91.92;96216.72;29395;238;64009;-62
2023/04/12 02:09:39;;;;;;;0.50;0.50;;;;;;;6.26;92.97;96224.25;29397;219;63009;-57
2023/04/12 02:10:14;;;;;;;0.50;0.50;;;;;;;6.26;92.68;96218.06;29396;207;63004;-63
2023/04/12 02:10:46;;;;;;;0.50;0.50;;;;;;;6.28;92.35;96215.91;29396;264;63008;-57
2023/04/12 02:11:17;;;;;;;0.50;0.50;;;;;;;6.28;92.33;96210.50;29396;196;63009;-56
2023/04/12 02:11:49;;;;;;;0.50;0.50;;;;;;;6.27;92.38;96214.28;29396;202;63005;-57
2023/04/12 02:12:22;;;;;;;0.50;0.50;;;;;;;6.28;92.05;96207.81;29396;242;63005;-57
2023/04/12 02:12:54;;;;;;;0.50;0.50;;;;;;;6.30;92.12;96208.34;29396;284;63009;-57
2023/04/12 02:13:25;;;;;;;0.50;0.50;;;;;;;6.29;92.24;96206.72;29395;236;64001;-56
2023/04/12 02:13:57;;;;;;;0.50;0.50;;;;;;;6.27;92.49;96207.00;29396;197;63009;-57
2023/04/12 02:14:30;;;;;;;0.50;0.50;;;;;;;6.26;92.54;96210.78;29396;218;63005;-58
2023/04/12 02:15:02;;;;;;;0.50;0.50;;;;;;;6.28;92.22;96205.13;29396;206;63009;-57
2023/04/12 02:15:36;;;;;;;0.50;0.50;;;;;;;6.27;92.44;96201.62;29396;202;63004;-57
2023/04/12 02:16:09;;;;;;;0.60;0.60;;;;;;;6.27;91.97;96208.91;29396;216;63009;-57
2023/04/12 02:16:43;;;;;;;0.60;0.60;;;;;;;6.25;91.77;96200.28;29396;202;63004;-57
2023/04/12 02:17:14;;;;;;;0.50;0.50;;;;;;;6.26;92.23;96201.91;29396;209;63009;-57
2023/04/12 02:17:46;;;;;;;0.60;0.60;;;;;;;6.27;91.99;96200.81;29396;239;63004;-56
2023/04/12 02:18:17;;;;;;;0.60;0.60;;;;;;;6.27;92.25;96198.13;29396;237;63009;-57
2023/04/12 02:18:51;;;;;;;0.60;0.60;;;;;;;6.26;92.54;96201.91;29395;238;64009;-57
2023/04/12 02:19:23;;;;;;;0.60;0.60;;;;;;;6.27;92.18;96195.44;29397;211;63013;-58
2023/04/12 02:19:54;;;;;;;0.60;0.60;;;;;;;6.25;92.17;96189.53;29397;209;63005;-65
2023/04/12 02:20:27;;;;;;;0.60;0.60;;;;;;;6.24;91.81;96194.09;29397;363;63009;-57
2023/04/12 02:20:58;;;;;;;0.50;0.50;;;;;;;6.24;91.75;96201.38;29397;221;63005;-57
2023/04/12 02:21:42;;;;;;;0.50;0.50;;;;;;;6.25;91.49;96194.91;29397;202;63009;-57
2023/04/12 02:22:13;;;;;;;0.60;0.60;;;;;;;6.23;92.10;96191.72;29396;217;63005;-58
2023/04/12 02:22:45;;;;;;;0.50;0.50;;;;;;;6.21;92.17;96193.91;29396;295;63009;-57
2023/04/12 02:23:17;;;;;;;0.50;0.50;;;;;;;6.19;93.07;96188.78;29396;235;63004;-58
2023/04/12 02:23:51;;;;;;;0.60;0.60;;;;;;;6.23;92.47;96197.09;29394;202;64013;-57
2023/04/12 02:24:23;;;;;;;0.60;0.60;;;;;;;6.23;92.38;96191.72;29396;251;63004;-61
2023/04/12 02:24:54;;;;;;;0.60;0.60;;;;;;;6.23;92.60;96197.09;29395;232;63008;-58
2023/04/12 02:25:26;;;;;;;0.50;0.50;;;;;;;6.21;93.01;96188.50;29393;203;64008;-57
2023/04/12 02:25:57;;;;;;;0.60;0.60;;;;;;;6.18;93.72;96183.69;29395;202;63009;-57
2023/04/12 02:26:29;;;;;;;0.50;0.50;;;;;;;6.18;93.60;96186.38;29396;308;63005;-60
2023/04/12 02:27:00;;;;;;;0.50;0.50;;;;;;;6.18;93.37;96189.06;29395;197;63009;-57
2023/04/12 02:27:31;;;;;;;0.50;0.50;;;;;;;6.17;93.35;96180.19;29395;304;63005;-57
2023/04/12 02:28:03;;;;;;;0.50;0.50;;;;;;;6.17;93.33;96184.75;29395;313;63009;-57
2023/04/12 02:28:36;;;;;;;0.60;0.60;;;;;;;6.16;93.74;96181.25;29395;283;63005;-57
2023/04/12 02:29:09;;;;;;;0.55;0.55;;;;;;;6.16;94.00;96180.47;29393;229;64013;-57
2023/04/12 02:29:41;;;;;;;0.60;0.60;;;;;;;6.17;93.58;96180.19;29395;213;63005;-57
2023/04/12 02:30:13;;;;;;;0.60;0.60;;;;;;;6.16;93.41;96175.06;29395;219;63009;-57
2023/04/12 02:30:52;;;;;;;0.60;0.60;;;;;;;6.17;93.67;96171.28;29395;236;63004;-58
2023/04/12 02:31:23;;;;;;;0.50;0.50;;;;;;;6.21;93.78;96166.94;29395;296;63009;-57
2023/04/12 02:31:55;;;;;;;0.50;0.50;;;;;;;6.19;94.11;96163.75;29395;234;63004;-61
2023/04/12 02:32:29;;;;;;;0.60;0.60;;;;;;;6.13;95.43;96173.75;29393;214;64013;-57
2023/04/12 02:33:02;;;;;;;0.57;0.57;;;;;;;6.10;95.59;96170.81;29393;291;64008;-62
2023/04/12 02:33:34;;;;;;;0.50;0.50;;;;;;;6.08;95.40;96173.78;29395;218;63022;-58
2023/04/12 02:34:06;;;;;;;0.60;0.60;;;;;;;6.07;94.87;96169.47;29393;199;63999;-61
2023/04/12 02:34:38;;;;;;;0.60;0.60;;;;;;;6.08;95.36;96173.78;29395;237;63009;-56
2023/04/12 02:35:11;;;;;;;0.60;0.60;;;;;;;6.05;95.54;96164.38;29395;218;63005;-57
2023/04/12 02:35:43;;;;;;;0.50;0.50;;;;;;;6.07;95.76;96171.38;29395;210;63009;-57
2023/04/12 02:36:14;;;;;;;11.07;8.18;;;;;;;6.05;95.77;96168.94;29390;203;64007;-57
2023/04/12 02:36:49;;;;;;;0.50;0.50;;;;;;;6.03;95.70;96165.75;29395;196;63009;-57
2023/04/12 02:37:21;;;;;;;0.60;0.60;;;;;;;6.03;96.67;96165.75;29395;198;63005;-57
2023/04/12 02:37:53;;;;;;;0.50;0.50;;;;;;;6.03;96.56;96166.53;29395;290;63009;-57
2023/04/12 02:38:25;;;;;;;0.50;0.50;;;;;;;6.01;96.40;96163.31;29393;375;64009;-56
2023/04/12 02:38:57;;;;;;;0.52;0.52;;;;;;;6.01;96.15;96162.53;29395;207;63009;-57
2023/04/12 02:39:31;;;;;;;0.60;0.60;;;;;;;6.01;96.36;96163.31;29393;210;64009;-55
2023/04/12 02:40:05;;;;;;;0.50;0.50;;;;;;;6.00;96.26;96161.72;29395;270;63026;-56
2023/04/12 02:40:40;;;;;;;0.60;0.60;;;;;;;6.01;96.31;96162.53;29395;223;63004;-57
2023/04/12 02:41:20;;;;;;;0.60;0.60;;;;;;;6.00;96.27;96159.03;29395;237;63009;-57
2023/04/12 02:41:51;;;;;;;0.60;0.60;;;;;;;6.01;95.78;96162.53;29395;218;63005;-57
2023/04/12 02:42:22;;;;;;;0.50;0.50;;;;;;;6.00;96.43;96156.34;29395;197;63009;-57
2023/04/12 02:42:54;;;;;;;0.60;0.60;;;;;;;6.00;96.80;96161.72;29395;216;63005;-57
2023/04/12 02:43:25;;;;;;;0.60;0.60;;;;;;;5.99;96.90;96154.72;29395;206;63009;-57
2023/04/12 02:43:56;;;;;;;0.60;0.60;;;;;;;5.98;97.45;96153.13;29395;351;63005;-57
2023/04/12 02:44:30;;;;;;;0.50;0.50;;;;;;;5.97;97.60;96154.19;29393;296;64013;-63
2023/04/12 02:45:03;;;;;;;0.50;0.50;;;;;;;5.96;97.62;96152.59;29395;202;63004;-56
2023/04/12 02:45:35;;;;;;;0.60;0.60;;;;;;;5.96;97.53;96155.28;29395;234;63009;-57
2023/04/12 02:46:06;;;;;;;0.50;0.50;;;;;;;5.96;97.20;96151.78;29394;244;63004;-57
2023/04/12 02:46:37;;;;;;;0.60;0.60;;;;;;;5.96;97.02;96151.78;29393;208;64013;-57
2023/04/12 02:47:09;;;;;;;0.52;0.52;;;;;;;5.98;97.22;96152.31;29395;207;63004;-62
2023/04/12 02:47:40;;;;;;;0.50;0.50;;;;;;;5.98;97.42;96153.13;29395;200;63008;-57
2023/04/12 02:48:11;;;;;;;0.60;0.60;;;;;;;5.98;97.24;96150.41;29395;236;63004;-57
2023/04/12 02:48:43;;;;;;;0.50;0.50;;;;;;;5.97;97.09;96148.81;29395;217;63009;-57
2023/04/12 02:49:14;;;;;;;0.50;0.50;;;;;;;5.99;97.24;96146.66;29395;357;63005;-57
2023/04/12 02:49:46;;;;;;;0.50;0.50;;;;;;;5.99;97.45;96151.22;29395;255;63009;-57
2023/04/12 02:50:21;;;;;;;0.55;0.55;;;;;;;5.97;98.21;96146.13;29395;213;63005;-57